Time;durP1;ratioP1;P1;durP2;ratioP2;P2;SDS_P1;SDS_P2;PMS_P1;PMS_P2;Temp;Humidity;BMP_temperature;BMP_pressure;BME280_temperature;BME280_humidity;BME280_pressure;Samples;Min_cycle;Max_cycle;Signal;HPM_P1;HPM_P2
2021/05/24 12:22:54;;;;;;;4.23;2.00;;;13.90;99.90;;;;;;4823807;26;12996968;-63
2021/05/24 12:25:35;;;;;;;3.57;2.77;;;14.30;99.90;;;;;;5266573;27;20530;-65
2021/05/24 12:28:05;;;;;;;2.60;1.63;;;14.30;99.90;;;;;;5268959;27;20122;-65
2021/05/24 12:30:52;;;;;;;2.17;1.87;;;14.50;99.90;;;;;;5266200;27;20131;-62
2021/05/24 12:33:24;;;;;;;3.17;1.80;;;14.60;99.90;;;;;;5266804;27;20442;-64
2021/05/24 12:36:02;;;;;;;2.83;1.70;;;14.80;99.90;;;;;;5266419;27;20111;-65
2021/05/24 12:38:47;;;;;;;2.50;1.43;;;15.10;99.90;;;;;;5266076;27;20139;-60
2021/05/24 12:41:21;;;;;;;2.90;1.87;;;15.30;99.90;;;;;;5267189;27;20122;-63
2021/05/24 12:44:15;;;;;;;3.50;2.10;;;15.30;99.90;;;;;;5266991;27;20117;-64
2021/05/24 12:46:51;;;;;;;1.53;1.43;;;15.60;99.90;;;;;;5267671;27;20475;-65
2021/05/24 12:49:22;;;;;;;2.80;2.50;;;15.90;99.90;;;;;;5266160;27;20163;-63
2021/05/24 12:52:00;;;;;;;2.57;1.80;;;16.20;99.90;;;;;;5268113;27;20446;-64
2021/05/24 12:54:30;;;;;;;8.93;7.43;;;16.40;99.90;;;;;;5265670;27;20411;-63
2021/05/24 12:59:52;;;;;;;2.00;1.80;;;17.10;99.90;;;;;;5266115;27;20486;-60
2021/05/24 13:02:26;;;;;;;6.07;3.80;;;17.50;99.30;;;;;;5268916;27;20542;-63
2021/05/24 13:04:56;;;;;;;8.53;7.63;;;17.80;98.60;;;;;;5266157;27;20099;-61
2021/05/24 13:07:27;;;;;;;2.87;2.60;;;17.50;98.10;;;;;;5266342;27;20126;-62
2021/05/24 13:10:11;;;;;;;2.00;1.63;;;17.30;99.30;;;;;;5267365;27;20108;-64
2021/05/24 13:13:00;;;;;;;2.50;1.70;;;17.40;99.90;;;;;;5266386;27;20125;-63
2021/05/24 13:15:37;;;;;;;3.50;1.70;;;17.50;99.60;;;;;;5266004;27;20572;-64
2021/05/24 13:18:22;;;;;;;2.63;1.90;;;17.40;97.90;;;;;;5266251;27;20118;-64
2021/05/24 13:24:25;;;;;;;4.67;3.97;;;17.20;99.30;;;;;;5261128;27;20159;-64
2021/05/24 13:30:08;;;;;;;1.87;1.30;;;17.10;99.20;;;;;;5155886;27;20128;-60
2021/05/24 13:32:39;;;;;;;4.80;2.77;;;17.10;99.20;;;;;;5156202;27;20118;-62
2021/05/24 13:35:25;;;;;;;4.07;3.10;;;17.00;98.10;;;;;;5155530;27;20424;-63
2021/05/24 13:37:58;;;;;;;8.37;2.83;;;16.10;99.90;;;;;;5153210;27;20105;-64
2021/05/24 13:40:41;;;;;;;;;;;;;;;;;;;;;
2021/05/24 13:43:20;;;;;;;33.20;24.10;;;13.90;99.90;;;;;;5153415;27;20131;-64
2021/05/24 13:45:52;;;;;;;6.13;4.80;;;13.40;99.90;;;;;;5153161;27;20125;-63
2021/05/24 13:48:25;;;;;;;7.37;5.60;;;13.30;99.90;;;;;;5155227;27;20144;-61
2021/05/24 13:51:00;;;;;;;3.70;3.30;;;13.30;99.90;;;;;;5153158;27;20268;-62
2021/05/24 13:53:41;;;;;;;3.57;2.40;;;13.50;99.90;;;;;;5152906;27;20168;-63
2021/05/24 13:56:09;;;;;;;8.77;7.43;;;14.00;99.90;;;;;;5152577;27;20202;-62
2021/05/24 13:58:39;;;;;;;12.33;9.43;;;14.30;99.90;;;;;;5153765;27;20144;-62
2021/05/24 14:01:14;;;;;;;16.70;8.37;;;14.60;99.90;;;;;;5221773;27;20146;-63
2021/05/24 14:03:54;;;;;;;6.90;5.53;;;15.10;99.90;;;;;;5261424;27;20548;-65
2021/05/24 14:06:23;;;;;;;3.37;2.90;;;15.50;99.90;;;;;;5262128;27;20108;-66
2021/05/24 14:08:56;;;;;;;8.23;5.80;;;15.70;99.90;;;;;;5261307;27;20436;-65
2021/05/24 14:11:23;;;;;;;4.80;2.50;;;15.80;99.90;;;;;;5261414;27;20106;-63
2021/05/24 14:14:08;;;;;;;5.40;3.83;;;16.00;99.90;;;;;;5261851;27;20588;-63
2021/05/24 14:16:37;;;;;;;3.03;2.60;;;15.90;99.90;;;;;;5261083;27;20611;-64
2021/05/24 14:19:12;;;;;;;3.40;3.10;;;15.70;99.90;;;;;;5261313;27;20118;-63
2021/05/24 14:21:51;;;;;;;7.30;5.37;;;15.70;99.90;;;;;;5260963;27;20555;-63
2021/05/24 14:24:20;;;;;;;6.57;3.93;;;15.70;99.90;;;;;;5261726;27;20131;-61
2021/05/24 14:26:49;;;;;;;5.80;4.73;;;15.80;99.90;;;;;;5261873;27;20115;-62
2021/05/24 14:29:24;;;;;;;6.63;4.40;;;16.20;99.90;;;;;;5262910;27;20114;-64
2021/05/24 14:31:55;;;;;;;4.33;3.23;;;16.60;99.90;;;;;;5261351;27;20138;-63
2021/05/24 14:34:22;;;;;;;4.47;3.30;;;17.20;99.90;;;;;;5260889;27;20119;-63
2021/05/24 14:36:50;;;;;;;4.53;2.67;;;17.40;99.90;;;;;;5261115;27;20107;-65
2021/05/24 14:39:29;;;;;;;2.57;2.00;;;17.20;99.90;;;;;;5261404;27;20111;-63
2021/05/24 14:42:06;;;;;;;3.77;1.90;;;17.00;99.90;;;;;;5260347;27;20540;-61
2021/05/24 14:44:36;;;;;;;3.10;2.10;;;17.20;99.90;;;;;;5260701;27;20122;-63
2021/05/24 14:47:06;;;;;;;3.43;2.00;;;17.40;99.90;;;;;;5260621;27;20111;-63
2021/05/24 14:49:36;;;;;;;2.53;2.10;;;17.20;99.90;;;;;;5260936;27;20128;-62
2021/05/24 14:52:13;;;;;;;12.40;7.50;;;17.10;99.90;;;;;;5260869;27;20115;-65
2021/05/24 14:54:39;;;;;;;9.37;6.23;;;17.30;99.90;;;;;;5261227;27;20108;-65
2021/05/24 14:57:23;;;;;;;4.93;3.07;;;16.80;99.90;;;;;;5260815;27;20524;-62
2021/05/24 14:59:52;;;;;;;4.83;2.57;;;16.60;99.90;;;;;;5261608;27;20117;-64
2021/05/24 15:02:21;;;;;;;3.47;1.87;;;16.50;99.90;;;;;;5260299;27;20127;-61
2021/05/24 15:04:50;;;;;;;6.10;3.03;;;16.50;99.90;;;;;;5260413;27;20161;-63
2021/05/24 15:07:20;;;;;;;5.27;4.30;;;16.60;99.90;;;;;;5260835;27;20115;-62
2021/05/24 15:09:49;;;;;;;4.20;2.83;;;16.60;99.90;;;;;;5260753;27;20107;-62
2021/05/24 15:12:15;;;;;;;4.53;2.57;;;16.50;99.90;;;;;;5260909;27;20165;-64
2021/05/24 15:14:46;;;;;;;4.80;2.77;;;16.20;99.90;;;;;;5262303;27;20118;-66
2021/05/24 15:17:15;;;;;;;10.33;6.50;;;15.90;99.90;;;;;;5263345;27;20139;-62
2021/05/24 15:19:42;;;;;;;5.07;3.63;;;15.80;99.90;;;;;;5260873;27;20118;-64
2021/05/24 15:22:11;;;;;;;5.40;3.30;;;15.70;99.90;;;;;;5260088;27;20181;-64
2021/05/24 15:24:46;;;;;;;4.23;2.00;;;15.70;99.90;;;;;;5260903;27;20100;-65
2021/05/24 15:27:25;;;;;;;6.47;5.17;;;15.80;99.90;;;;;;5260500;27;20137;-63
2021/05/24 15:29:59;;;;;;;3.50;2.93;;;15.90;99.90;;;;;;5260607;27;20118;-62
2021/05/24 15:32:28;;;;;;;7.70;4.10;;;15.70;99.90;;;;;;5262803;27;20152;-63
2021/05/24 15:35:11;;;;;;;5.33;3.10;;;15.60;99.90;;;;;;5260755;27;20157;-63
2021/05/24 15:37:52;;;;;;;7.77;2.33;;;15.30;99.90;;;;;;5261567;27;20143;-63
2021/05/24 15:40:23;;;;;;;7.20;2.77;;;15.00;99.90;;;;;;5260719;27;20403;-63
2021/05/24 15:43:13;;;;;;;5.33;2.83;;;14.50;99.90;;;;;;5260790;27;20422;-65
2021/05/24 15:45:47;;;;;;;4.47;2.97;;;13.60;99.90;;;;;;5260588;27;20123;-62
2021/05/24 15:48:29;;;;;;;3.87;2.80;;;13.30;99.90;;;;;;5260802;27;20206;-63
2021/05/24 15:50:58;;;;;;;4.67;3.00;;;13.10;99.90;;;;;;5261382;27;20131;-64
2021/05/24 15:53:33;;;;;;;4.17;2.90;;;13.10;99.90;;;;;;5262113;27;20412;-63
2021/05/24 15:56:01;;;;;;;4.97;2.93;;;13.10;99.90;;;;;;5261113;27;20130;-65
2021/05/24 15:58:33;;;;;;;5.97;3.20;;;13.00;99.90;;;;;;5259479;27;20190;-64
2021/05/24 16:01:00;;;;;;;5.20;2.97;;;13.00;99.90;;;;;;5259356;27;20116;-63
2021/05/24 16:03:35;;;;;;;5.73;3.33;;;12.90;99.90;;;;;;5262679;27;20117;-64
2021/05/24 16:06:12;;;;;;;5.63;3.93;;;13.00;99.90;;;;;;5261070;27;20119;-63
2021/05/24 16:08:39;;;;;;;4.93;3.80;;;13.10;99.90;;;;;;5260608;27;20107;-65
2021/05/24 16:11:07;;;;;;;4.07;3.07;;;13.40;99.90;;;;;;5260716;27;20571;-63
2021/05/24 16:13:35;;;;;;;5.60;3.07;;;13.80;99.90;;;;;;5260184;27;20118;-63
2021/05/24 16:16:01;;;;;;;3.23;2.93;;;13.90;99.90;;;;;;5260378;27;20107;-61
2021/05/24 16:18:38;;;;;;;4.17;3.53;;;13.70;99.90;;;;;;5260429;27;20527;-62
2021/05/24 16:21:08;;;;;;;4.30;3.00;;;13.60;99.90;;;;;;5260826;27;20165;-64
2021/05/24 16:23:36;;;;;;;5.10;3.53;;;13.60;99.90;;;;;;5259746;27;20135;-63
2021/05/24 16:26:11;;;;;;;5.00;3.30;;;13.70;99.90;;;;;;5260611;27;20578;-65
2021/05/24 16:28:40;;;;;;;3.97;3.17;;;14.00;99.90;;;;;;5260860;27;20144;-64
2021/05/24 16:31:07;;;;;;;4.77;2.50;;;14.30;99.90;;;;;;5261597;27;20123;-62
2021/05/24 16:33:34;;;;;;;4.70;2.90;;;14.60;99.90;;;;;;5260721;27;20115;-63
2021/05/24 16:36:01;;;;;;;4.23;2.63;;;14.80;99.90;;;;;;5259414;27;20115;-63
2021/05/24 16:38:28;;;;;;;3.87;3.47;;;14.70;99.90;;;;;;5261303;27;20541;-62
2021/05/24 16:40:56;;;;;;;4.73;2.90;;;14.50;99.90;;;;;;5261024;27;20103;-64
2021/05/24 16:43:23;;;;;;;4.30;2.87;;;14.40;99.90;;;;;;5260785;27;20531;-63
2021/05/24 16:45:49;;;;;;;5.30;2.57;;;14.40;99.90;;;;;;5260351;27;20115;-63
2021/05/24 16:48:17;;;;;;;2.63;2.10;;;14.50;99.90;;;;;;5262125;27;20142;-64
2021/05/24 16:50:54;;;;;;;3.30;2.27;;;14.50;99.90;;;;;;5259997;27;20122;-63
2021/05/24 16:53:23;;;;;;;4.67;2.40;;;14.60;99.90;;;;;;5260071;27;20131;-65
2021/05/24 16:55:50;;;;;;;4.70;2.50;;;14.50;99.90;;;;;;5260654;27;20108;-61
2021/05/24 16:58:16;;;;;;;3.93;2.93;;;14.50;99.90;;;;;;5259824;27;20114;-64
2021/05/24 17:00:43;;;;;;;3.90;2.53;;;14.20;99.90;;;;;;5261123;27;20110;-65
2021/05/24 17:03:10;;;;;;;4.17;2.63;;;14.10;99.90;;;;;;5261260;27;20462;-63
2021/05/24 17:05:37;;;;;;;7.37;5.70;;;13.90;99.90;;;;;;5261352;27;20107;-61
2021/05/24 17:08:05;;;;;;;24.47;11.43;;;13.80;99.90;;;;;;5261562;27;20126;-62
2021/05/24 17:10:33;;;;;;;25.27;13.03;;;13.80;99.90;;;;;;5261762;27;20653;-63
2021/05/24 17:13:01;;;;;;;26.47;14.03;;;13.80;99.90;;;;;;5262027;27;20109;-64
2021/05/24 17:15:28;;;;;;;3.93;2.20;;;14.00;99.90;;;;;;5261590;27;20179;-61
2021/05/24 17:17:55;;;;;;;2.33;1.50;;;13.90;99.90;;;;;;5260970;27;20103;-61
2021/05/24 17:20:22;;;;;;;3.60;1.30;;;13.50;99.90;;;;;;5261528;27;20127;-62
2021/05/24 17:22:49;;;;;;;1.37;0.90;;;13.00;99.90;;;;;;5260945;27;20174;-62
2021/05/24 17:25:19;;;;;;;2.10;1.20;;;12.80;99.90;;;;;;5261465;27;20120;-62
2021/05/24 17:27:45;;;;;;;2.67;1.20;;;12.40;99.90;;;;;;5261447;27;20117;-64
2021/05/24 17:30:16;;;;;;;3.17;1.07;;;12.20;99.90;;;;;;5261393;27;20116;-64
2021/05/24 17:32:43;;;;;;;3.07;1.43;;;11.80;99.90;;;;;;5261330;27;20170;-64
2021/05/24 17:35:12;;;;;;;4.17;1.77;;;11.30;99.90;;;;;;5261344;27;20127;-62
2021/05/24 17:37:39;;;;;;;2.80;1.47;;;11.00;99.90;;;;;;5261299;27;20156;-65
2021/05/24 17:40:07;;;;;;;3.37;2.10;;;10.80;99.90;;;;;;5260721;27;20134;-64
2021/05/24 17:42:35;;;;;;;3.53;1.53;;;10.70;99.90;;;;;;5262647;27;20107;-60
2021/05/24 17:45:06;;;;;;;5.63;2.33;;;10.70;99.90;;;;;;5261393;27;20159;-61
2021/05/24 17:47:35;;;;;;;3.40;2.07;;;10.70;99.90;;;;;;5263583;27;20107;-61
2021/05/24 17:50:05;;;;;;;6.57;2.60;;;10.60;99.90;;;;;;5262520;27;20172;-62
2021/05/24 17:52:36;;;;;;;5.20;2.30;;;10.50;99.90;;;;;;5263279;27;20556;-62
2021/05/24 17:55:07;;;;;;;9.07;2.23;;;10.50;99.90;;;;;;5261368;27;20135;-62
2021/05/24 17:57:35;;;;;;;8.53;2.70;;;10.50;99.90;;;;;;5262472;27;20116;-60
2021/05/24 18:00:07;;;;;;;8.93;2.53;;;10.40;99.90;;;;;;5263357;27;20149;-62
2021/05/24 18:02:36;;;;;;;5.70;2.30;;;10.50;99.90;;;;;;5261221;27;20108;-61
2021/05/24 18:05:04;;;;;;;4.37;2.13;;;10.40;99.90;;;;;;5261124;27;20111;-61
2021/05/24 18:07:30;;;;;;;4.47;2.57;;;10.50;99.90;;;;;;5261307;27;20104;-61
2021/05/24 18:09:56;;;;;;;6.43;2.60;;;10.50;99.90;;;;;;5261290;27;20153;-62
2021/05/24 18:12:23;;;;;;;4.13;2.13;;;10.50;99.90;;;;;;5261178;27;20157;-61
2021/05/24 18:14:50;;;;;;;3.97;2.43;;;10.50;99.90;;;;;;5261276;27;20131;-63
2021/05/24 18:17:16;;;;;;;8.60;2.90;;;10.60;99.90;;;;;;5260926;27;20107;-62
2021/05/24 18:19:44;;;;;;;10.07;3.73;;;10.60;99.90;;;;;;5259848;27;20107;-62
2021/05/24 18:22:16;;;;;;;6.87;2.73;;;10.60;99.90;;;;;;5261253;27;20474;-61
2021/05/24 18:24:42;;;;;;;4.97;2.93;;;10.80;99.90;;;;;;5260809;27;20108;-62
2021/05/24 18:27:09;;;;;;;12.70;4.13;;;10.80;99.90;;;;;;5261599;27;20124;-62
2021/05/24 18:29:35;;;;;;;25.03;10.07;;;10.80;99.90;;;;;;5262717;27;20107;-62
2021/05/24 18:32:05;;;;;;;16.50;7.03;;;10.80;99.90;;;;;;5261062;27;20111;-62
2021/05/24 18:34:34;;;;;;;23.27;11.00;;;10.80;99.90;;;;;;5260531;27;20436;-60
2021/05/24 18:37:00;;;;;;;14.07;6.80;;;10.90;99.90;;;;;;5259700;27;20137;-63
2021/05/24 18:39:26;;;;;;;7.53;3.10;;;10.90;99.90;;;;;;5260971;27;20122;-61
2021/05/24 18:41:56;;;;;;;7.53;3.03;;;10.80;99.90;;;;;;5260566;27;20134;-61
2021/05/24 18:44:22;;;;;;;5.27;2.40;;;10.80;99.90;;;;;;5262696;27;20123;-62
2021/05/24 18:46:49;;;;;;;7.03;3.07;;;10.80;99.90;;;;;;5260489;27;20115;-63
2021/05/24 18:49:16;;;;;;;5.43;2.77;;;10.80;99.90;;;;;;5260657;27;20432;-63
2021/05/24 18:51:42;;;;;;;6.70;2.97;;;10.70;99.90;;;;;;5259175;27;20109;-61
2021/05/24 18:54:09;;;;;;;9.00;2.80;;;10.70;99.90;;;;;;5262341;27;20103;-61
2021/05/24 18:56:36;;;;;;;8.97;3.27;;;10.70;99.90;;;;;;5261434;27;20109;-60
2021/05/24 18:59:04;;;;;;;8.23;3.20;;;10.60;99.90;;;;;;5260530;27;20166;-61
2021/05/24 19:01:30;;;;;;;7.70;3.30;;;10.70;99.90;;;;;;5259755;27;20119;-61
2021/05/24 19:03:59;;;;;;;11.30;3.13;;;10.70;99.90;;;;;;5261714;27;20119;-60
2021/05/24 19:06:28;;;;;;;8.53;3.17;;;10.70;99.90;;;;;;5262213;27;20115;-60
2021/05/24 19:08:57;;;;;;;6.20;3.47;;;10.70;99.90;;;;;;5260875;27;20121;-62
2021/05/24 19:11:27;;;;;;;9.00;3.17;;;10.70;99.90;;;;;;5261161;27;20175;-61
2021/05/24 19:13:54;;;;;;;6.97;3.50;;;10.70;99.90;;;;;;5259859;27;20107;-61
2021/05/24 19:16:24;;;;;;;7.67;3.20;;;10.70;99.90;;;;;;5260565;27;20124;-61
2021/05/24 19:18:50;;;;;;;9.27;4.43;;;10.70;99.90;;;;;;5260500;27;20110;-61
2021/05/24 19:21:18;;;;;;;8.73;4.33;;;10.70;99.90;;;;;;5258717;27;20118;-60
2021/05/24 19:23:48;;;;;;;12.10;4.73;;;10.70;99.90;;;;;;5259428;27;20153;-61
2021/05/24 19:26:15;;;;;;;12.23;6.37;;;10.60;99.90;;;;;;5260501;27;20111;-62
2021/05/24 19:28:46;;;;;;;10.37;4.60;;;10.60;99.90;;;;;;5259940;27;20512;-61
2021/05/24 19:31:12;;;;;;;10.60;4.20;;;10.70;99.90;;;;;;5261016;27;20169;-62
2021/05/24 19:33:39;;;;;;;5.40;3.67;;;10.70;99.90;;;;;;5261568;27;20136;-62
2021/05/24 19:36:08;;;;;;;10.60;4.20;;;10.70;99.90;;;;;;5260492;27;20141;-62
2021/05/24 19:38:35;;;;;;;9.90;4.10;;;10.70;99.90;;;;;;5260472;27;20583;-62
2021/05/24 19:41:02;;;;;;;10.63;5.03;;;10.70;99.90;;;;;;5261011;27;20124;-62
2021/05/24 19:43:29;;;;;;;12.50;5.37;;;10.60;99.90;;;;;;5260619;27;20153;-63
2021/05/24 19:45:58;;;;;;;10.80;5.20;;;10.50;99.90;;;;;;5260284;27;20103;-63
2021/05/24 20:24:12;;;;;;;12.37;6.23;;;10.40;99.90;;;;;;5258643;27;20153;-63
2021/05/24 20:26:40;;;;;;;9.77;7.07;;;10.40;99.90;;;;;;5257148;27;20190;-62
2021/05/24 20:29:09;;;;;;;13.57;8.30;;;10.40;99.90;;;;;;5260716;27;20107;-65
2021/05/24 20:31:36;;;;;;;19.33;10.87;;;10.40;99.90;;;;;;5258843;27;20163;-62
2021/05/24 20:34:07;;;;;;;14.30;7.93;;;10.40;99.90;;;;;;5261604;27;20118;-64
2021/05/24 20:36:36;;;;;;;12.10;7.67;;;10.40;99.90;;;;;;5262693;27;20121;-62
2021/05/24 20:39:07;;;;;;;10.03;6.27;;;10.40;99.90;;;;;;5261820;27;20110;-62
2021/05/24 20:41:34;;;;;;;11.77;6.13;;;10.40;99.90;;;;;;5262467;27;20117;-63
2021/05/24 20:44:04;;;;;;;9.67;5.90;;;10.40;99.90;;;;;;5262392;27;20129;-63
2021/05/24 20:46:31;;;;;;;10.90;6.13;;;10.40;99.90;;;;;;5261378;27;20134;-63
2021/05/24 20:49:01;;;;;;;8.43;6.03;;;10.50;99.90;;;;;;5261718;27;20198;-60
2021/05/24 20:51:28;;;;;;;10.00;6.63;;;10.40;99.90;;;;;;5261589;27;20188;-63
2021/05/24 20:53:54;;;;;;;10.53;6.57;;;10.40;99.90;;;;;;5261687;27;20107;-64
2021/05/24 20:56:22;;;;;;;12.53;6.90;;;10.30;99.90;;;;;;5263144;27;20485;-62
2021/05/24 20:58:50;;;;;;;6.80;6.00;;;10.30;99.90;;;;;;5261635;27;20150;-62
2021/05/24 21:01:18;;;;;;;13.90;7.87;;;10.30;99.90;;;;;;5261554;27;20543;-61
2021/05/24 21:03:47;;;;;;;10.73;6.80;;;10.40;99.90;;;;;;5261846;27;20111;-62
2021/05/24 21:06:13;;;;;;;11.63;6.33;;;10.40;99.90;;;;;;5262625;27;20162;-63
2021/05/24 21:08:40;;;;;;;13.03;7.07;;;10.40;99.90;;;;;;5261622;27;20122;-62
2021/05/24 21:11:07;;;;;;;13.43;7.30;;;10.40;99.90;;;;;;5263603;27;20145;-61
2021/05/24 21:13:35;;;;;;;13.33;8.07;;;10.40;99.90;;;;;;5261810;27;20121;-62
2021/05/24 21:16:01;;;;;;;16.27;8.27;;;10.40;99.90;;;;;;5260990;27;20434;-62
2021/05/24 21:18:28;;;;;;;13.53;8.27;;;10.40;99.90;;;;;;5261700;27;20121;-62
2021/05/24 21:20:55;;;;;;;13.53;9.47;;;10.40;99.90;;;;;;5263757;27;20201;-63
2021/05/24 21:23:28;;;;;;;13.77;8.90;;;10.40;99.90;;;;;;5260978;27;20140;-62
2021/05/24 21:25:56;;;;;;;13.10;8.70;;;10.40;99.90;;;;;;5259473;27;20116;-62
2021/05/24 21:28:22;;;;;;;15.97;9.70;;;10.40;99.90;;;;;;5262258;27;20108;-65
2021/05/24 21:30:49;;;;;;;13.97;9.50;;;10.40;99.90;;;;;;5261487;27;20206;-61
2021/05/24 21:33:34;;;;;;;15.20;10.33;;;10.40;99.90;;;;;;5261436;27;20125;-62
2021/05/24 21:36:05;;;;;;;18.57;10.27;;;10.40;99.90;;;;;;5261547;27;20161;-62
2021/05/24 21:38:32;;;;;;;21.37;11.93;;;10.30;99.90;;;;;;5262847;27;20429;-62
2021/05/24 21:40:59;;;;;;;18.33;11.27;;;10.30;99.90;;;;;;5261540;27;20165;-61
2021/05/24 21:43:27;;;;;;;20.63;13.10;;;10.30;99.90;;;;;;5260952;27;20554;-62
2021/05/24 21:45:55;;;;;;;21.20;12.53;;;10.40;99.90;;;;;;5262102;27;20451;-63
2021/05/24 21:48:22;;;;;;;21.63;12.93;;;10.40;99.90;;;;;;5261964;27;20427;-61
2021/05/24 21:50:50;;;;;;;17.27;12.77;;;10.40;99.90;;;;;;5262033;27;20467;-62
2021/05/24 21:53:18;;;;;;;15.73;12.60;;;10.40;99.90;;;;;;5263427;27;20106;-62
2021/05/24 21:55:44;;;;;;;19.93;13.10;;;10.40;99.90;;;;;;5262038;27;20117;-62
2021/05/24 21:58:11;;;;;;;22.50;15.07;;;10.40;99.90;;;;;;5261170;27;20133;-61
2021/05/24 22:00:40;;;;;;;21.63;14.27;;;10.30;99.90;;;;;;5262413;27;20107;-60
2021/05/24 22:03:07;;;;;;;18.40;13.60;;;10.40;99.90;;;;;;5261813;27;20168;-62
2021/05/24 22:05:34;;;;;;;19.37;14.43;;;10.40;99.90;;;;;;5261189;27;20108;-60
2021/05/24 22:08:00;;;;;;;19.50;13.90;;;10.40;99.90;;;;;;5261233;27;20145;-61
2021/05/24 22:10:29;;;;;;;23.10;14.43;;;10.30;99.90;;;;;;5261805;27;20107;-61
2021/05/24 22:12:56;;;;;;;17.77;13.87;;;10.30;99.90;;;;;;5260867;27;20137;-62
2021/05/24 22:15:23;;;;;;;21.53;14.90;;;10.30;99.90;;;;;;5263811;27;20552;-61
2021/05/24 22:17:50;;;;;;;23.53;15.03;;;10.30;99.90;;;;;;5261178;27;20144;-61
2021/05/24 22:20:35;;;;;;;23.53;15.37;;;10.30;99.90;;;;;;5261393;27;20122;-61
2021/05/24 22:23:01;;;;;;;21.93;15.10;;;10.30;99.90;;;;;;5261383;27;20177;-63
2021/05/24 22:25:30;;;;;;;22.83;15.50;;;10.30;99.90;;;;;;5261184;27;20108;-63
2021/05/24 22:27:56;;;;;;;21.87;16.60;;;10.20;99.90;;;;;;5263662;27;20503;-62
2021/05/24 22:30:24;;;;;;;23.03;15.73;;;10.30;99.90;;;;;;5261024;27;20121;-63
2021/05/24 22:32:55;;;;;;;25.57;16.73;;;10.40;99.90;;;;;;5260764;27;20111;-62
2021/05/24 22:35:22;;;;;;;24.17;17.17;;;10.40;99.90;;;;;;5261092;27;20124;-63
2021/05/24 22:37:49;;;;;;;22.37;15.07;;;10.40;99.90;;;;;;5263601;27;20119;-63
2021/05/24 22:40:18;;;;;;;22.27;15.10;;;10.40;99.90;;;;;;5259863;27;20136;-65
2021/05/24 22:42:46;;;;;;;25.33;15.83;;;10.40;99.90;;;;;;5260323;27;20110;-63
2021/05/24 22:45:14;;;;;;;19.63;14.90;;;10.30;99.90;;;;;;5262141;27;20430;-63
2021/05/24 22:47:40;;;;;;;22.03;16.13;;;10.30;99.90;;;;;;5261227;27;20111;-62
2021/05/24 22:50:10;;;;;;;23.53;17.03;;;10.20;99.90;;;;;;5260847;27;20467;-61
2021/05/24 22:52:38;;;;;;;22.43;15.83;;;10.10;99.90;;;;;;5261068;27;20129;-62
2021/05/24 22:55:06;;;;;;;18.67;15.17;;;10.10;99.90;;;;;;5260438;27;20118;-62
2021/05/24 22:57:33;;;;;;;23.97;16.27;;;10.10;99.90;;;;;;5261989;27;20136;-64
2021/05/24 23:00:00;;;;;;;18.83;15.53;;;10.10;99.90;;;;;;5260798;27;20126;-63
2021/05/24 23:02:27;;;;;;;17.50;14.87;;;10.10;99.90;;;;;;5260841;27;20123;-63
2021/05/24 23:04:54;;;;;;;20.60;15.07;;;10.20;99.90;;;;;;5260782;27;20125;-62
2021/05/24 23:07:21;;;;;;;20.03;15.67;;;10.20;99.90;;;;;;5260114;27;20107;-62
2021/05/24 23:09:47;;;;;;;21.83;16.73;;;10.20;99.90;;;;;;5262136;27;20113;-63
2021/05/24 23:12:14;;;;;;;22.03;15.37;;;10.20;99.90;;;;;;5260707;27;20143;-64
2021/05/24 23:14:40;;;;;;;21.83;15.13;;;10.20;99.90;;;;;;5263197;27;20117;-62
2021/05/24 23:17:07;;;;;;;19.90;16.60;;;10.10;99.90;;;;;;5260924;27;20121;-61
2021/05/24 23:19:33;;;;;;;22.17;16.67;;;10.10;99.90;;;;;;5260854;27;20509;-62
2021/05/24 23:22:01;;;;;;;25.20;17.80;;;10.00;99.90;;;;;;5260269;27;20158;-62
2021/05/24 23:24:27;;;;;;;20.87;17.10;;;9.90;99.90;;;;;;5261479;27;20114;-62
2021/05/24 23:26:54;;;;;;;19.90;15.33;;;9.80;99.90;;;;;;5261516;27;20104;-65
2021/05/24 23:29:20;;;;;;;15.87;12.80;;;9.80;99.90;;;;;;5260771;27;20107;-64
2021/05/24 23:31:47;;;;;;;19.40;13.47;;;9.70;99.90;;;;;;5260559;27;20120;-65
2021/05/24 23:34:15;;;;;;;16.27;13.03;;;9.70;99.90;;;;;;5261915;27;20129;-63
2021/05/24 23:36:41;;;;;;;14.30;11.37;;;9.60;99.90;;;;;;5262523;27;20439;-62
2021/05/24 23:39:08;;;;;;;15.00;11.70;;;9.50;99.90;;;;;;5260171;27;20132;-63
2021/05/24 23:41:37;;;;;;;9.03;7.83;;;9.50;99.90;;;;;;5260483;27;20126;-62
2021/05/24 23:44:04;;;;;;;9.87;8.57;;;9.50;99.90;;;;;;5260653;27;20110;-62
2021/05/24 23:46:30;;;;;;;9.27;7.63;;;9.50;99.90;;;;;;5260507;27;20121;-62
2021/05/24 23:48:57;;;;;;;9.47;6.60;;;9.40;99.90;;;;;;5260809;27;20156;-63
2021/05/24 23:51:24;;;;;;;6.10;5.50;;;9.50;99.90;;;;;;5260479;27;20588;-63
2021/05/24 23:53:50;;;;;;;8.87;5.10;;;9.40;99.90;;;;;;5260424;27;20126;-63
2021/05/24 23:59:39;;;;;;;4.83;3.03;;;9.30;99.90;;;;;;5260334;27;20601;-62
